createdAt,value
2023-03-08T00:02:46.036Z,4.63
2023-03-08T00:08:08.712Z,4.20
2023-03-08T00:13:31.235Z,5.17
2023-03-08T00:18:53.694Z,6.97
2023-03-08T00:24:16.933Z,3.47
2023-03-08T00:29:39.212Z,5.87
2023-03-08T00:35:01.741Z,8.23
2023-03-08T00:40:24.315Z,4.77
2023-03-08T00:45:48.752Z,4.00
2023-03-08T00:51:15.289Z,2.63
2023-03-08T00:56:37.661Z,12.67
2023-03-08T01:02:01.132Z,4.03
2023-03-08T01:07:26.778Z,2.33
2023-03-08T01:12:49.274Z,4.27
2023-03-08T01:18:12.093Z,6.93
2023-03-08T01:23:34.299Z,8.17
2023-03-08T01:28:57.725Z,3.87
2023-03-08T01:34:20.921Z,3.80
2023-03-08T01:39:44.037Z,2.93
2023-03-08T01:45:27.215Z,4.73
2023-03-08T01:50:49.761Z,5.67
2023-03-08T01:56:15.608Z,3.63
2023-03-08T02:01:39.119Z,4.87
2023-03-08T02:07:01.781Z,6.77
2023-03-08T02:12:24.259Z,4.80
2023-03-08T02:17:47.136Z,3.10
2023-03-08T02:23:11.753Z,4.20
2023-03-08T02:28:36.733Z,8.30
2023-03-08T02:33:59.154Z,4.37
2023-03-08T02:39:22.568Z,7.57
2023-03-08T02:44:44.799Z,10.80
2023-03-08T02:50:07.795Z,6.60
2023-03-08T02:55:30.561Z,6.70
2023-03-08T03:00:52.902Z,11.13
2023-03-08T03:06:18.514Z,12.67
2023-03-08T03:11:43.750Z,14.30
2023-03-08T03:17:06.464Z,7.53
2023-03-08T03:22:29.099Z,10.60
2023-03-08T03:27:53.902Z,10.13
2023-03-08T03:33:16.409Z,11.00
2023-03-08T03:38:40.015Z,14.03
2023-03-08T03:44:02.890Z,12.53
2023-03-08T03:49:25.884Z,15.37
2023-03-08T03:54:48.522Z,14.57
2023-03-08T04:00:11.975Z,13.23
2023-03-08T04:05:37.692Z,11.03
2023-03-08T04:11:01.204Z,15.30
2023-03-08T04:16:29.810Z,14.57
2023-03-08T04:21:54.945Z,15.77
2023-03-08T04:27:20.236Z,16.57
2023-03-08T04:32:42.798Z,18.80
2023-03-08T04:38:05.713Z,16.27
2023-03-08T04:43:30.095Z,12.60
2023-03-08T04:48:55.663Z,16.67
2023-03-08T04:54:20.624Z,14.57
2023-03-08T04:59:49.257Z,14.80
2023-03-08T05:05:11.968Z,16.80
2023-03-08T05:10:34.743Z,16.83
2023-03-08T05:15:57.976Z,15.87
2023-03-08T05:21:22.776Z,14.53
2023-03-08T05:26:50.028Z,16.00
2023-03-08T05:32:14.212Z,17.53
2023-03-08T05:37:37.354Z,12.03
2023-03-08T05:43:00.617Z,14.67
2023-03-08T05:48:23.991Z,15.53
2023-03-08T05:53:46.922Z,13.83
2023-03-08T05:59:11.750Z,13.43
2023-03-08T06:04:34.220Z,12.73
2023-03-08T06:09:57.170Z,13.63
2023-03-08T06:15:20.341Z,12.80
2023-03-08T06:20:42.724Z,11.87
2023-03-08T06:26:06.099Z,13.67
2023-03-08T06:31:31.433Z,13.33
2023-03-08T06:36:56.788Z,10.90
2023-03-08T06:42:25.782Z,11.07
2023-03-08T06:47:53.988Z,16.67
2023-03-08T06:53:16.656Z,13.97
2023-03-08T06:58:50.089Z,10.63
2023-03-08T07:04:12.555Z,9.20
2023-03-08T07:09:34.880Z,9.53
2023-03-08T07:14:57.432Z,9.80
2023-03-08T07:20:21.274Z,11.60
2023-03-08T07:25:43.842Z,15.87
2023-03-08T07:31:06.376Z,13.93
2023-03-08T07:36:28.617Z,15.50
2023-03-08T07:41:51.342Z,16.37
2023-03-08T07:47:13.741Z,11.63
2023-03-08T07:52:36.076Z,13.30
2023-03-08T07:57:58.499Z,12.27
2023-03-08T08:03:21.750Z,16.07
2023-03-08T08:08:44.042Z,11.43
2023-03-08T08:14:06.321Z,15.67
2023-03-08T08:19:28.924Z,14.37
2023-03-08T08:24:51.147Z,13.10
2023-03-08T08:30:14.920Z,11.53
2023-03-08T08:35:43.346Z,16.03
2023-03-08T08:41:08.367Z,13.27
2023-03-08T08:46:34.158Z,12.97
2023-03-08T08:51:56.307Z,14.27
2023-03-08T08:57:18.520Z,12.03
2023-03-08T09:02:41.126Z,10.67
2023-03-08T09:08:03.811Z,15.03
2023-03-08T09:13:26.589Z,14.10
2023-03-08T09:18:49.248Z,11.90
2023-03-08T09:24:12.495Z,12.83
2023-03-08T09:29:36.641Z,10.63
2023-03-08T09:34:59.139Z,6.97
2023-03-08T09:40:27.061Z,11.47
2023-03-08T09:45:53.352Z,8.00
2023-03-08T09:51:19.206Z,9.03
2023-03-08T09:56:53.962Z,8.57
2023-03-08T10:02:31.627Z,11.30
2023-03-08T10:08:14.713Z,11.03
2023-03-08T10:13:47.634Z,9.23
2023-03-08T10:19:18.969Z,3.80
2023-03-08T10:24:52.409Z,6.23
2023-03-08T10:30:20.042Z,7.17
2023-03-08T10:36:04.681Z,7.93
2023-03-08T10:41:29.699Z,7.67
2023-03-08T10:46:51.942Z,6.33
2023-03-08T10:52:26.046Z,6.43
2023-03-08T10:57:50.607Z,3.53
2023-03-08T11:03:21.500Z,4.40
2023-03-08T11:09:00.032Z,3.00
2023-03-08T11:14:22.768Z,4.33
2023-03-08T11:20:00.207Z,4.07
2023-03-08T11:25:34.533Z,5.77
2023-03-08T11:31:15.168Z,7.30
2023-03-08T11:36:50.805Z,4.03
2023-03-08T11:42:22.438Z,4.83
2023-03-08T11:48:11.395Z,4.17
2023-03-08T11:54:03.441Z,5.80
2023-03-08T11:59:42.426Z,6.40
2023-03-08T12:05:17.776Z,4.90
2023-03-08T12:10:51.040Z,2.97
2023-03-08T12:16:26.848Z,3.50
2023-03-08T12:21:58.106Z,4.07
2023-03-08T12:27:35.834Z,2.80
2023-03-08T12:33:01.736Z,6.67
2023-03-08T12:38:24.131Z,3.67
2023-03-08T12:43:46.724Z,6.13
2023-03-08T12:49:25.248Z,8.30
2023-03-08T12:55:06.063Z,5.83
2023-03-08T13:00:37.470Z,3.53
2023-03-08T13:06:00.084Z,5.03
2023-03-08T13:11:25.182Z,2.83
2023-03-08T13:16:48.122Z,4.20
2023-03-08T13:22:18.663Z,4.47
2023-03-08T13:28:07.788Z,3.63
2023-03-08T13:33:43.222Z,3.17
2023-03-08T13:39:17.892Z,6.47
2023-03-08T13:44:40.365Z,3.40
2023-03-08T13:50:03.087Z,4.83
2023-03-08T13:55:32.449Z,6.30
2023-03-08T14:01:09.619Z,4.90
2023-03-08T14:06:35.782Z,4.67
2023-03-08T14:12:05.364Z,5.07
2023-03-08T14:17:30.653Z,10.07
2023-03-08T14:22:55.299Z,9.03
2023-03-08T14:28:41.343Z,6.13
2023-03-08T14:34:04.977Z,5.50
2023-03-08T14:39:29.945Z,8.43
2023-03-08T14:45:01.864Z,6.37
2023-03-08T14:50:33.610Z,5.40
2023-03-08T14:55:57.557Z,6.37
2023-03-08T15:01:27.813Z,11.33
2023-03-08T15:06:52.764Z,6.40
2023-03-08T15:12:15.448Z,8.70
2023-03-08T15:17:37.894Z,8.40
2023-03-08T15:23:05.405Z,8.73
2023-03-08T15:28:27.780Z,8.90
2023-03-08T15:33:50.403Z,12.20
2023-03-08T15:39:13.049Z,11.17
2023-03-08T15:44:35.834Z,9.40
2023-03-08T15:49:58.330Z,11.13
2023-03-08T15:55:21.346Z,7.73
2023-03-08T16:00:44.086Z,8.30
2023-03-08T16:06:15.283Z,8.40
2023-03-08T16:11:37.839Z,8.17
2023-03-08T16:17:00.248Z,9.00
2023-03-08T16:22:23.292Z,10.37
2023-03-08T16:27:45.773Z,11.67
2023-03-08T16:33:43.235Z,10.30
2023-03-08T16:39:06.885Z,9.30
2023-03-08T16:44:30.933Z,9.50
2023-03-08T16:49:54.068Z,10.60
2023-03-08T16:55:16.630Z,6.30
2023-03-08T17:00:42.283Z,7.97
2023-03-08T17:06:08.764Z,8.30
2023-03-08T17:11:34.430Z,9.17
2023-03-08T17:16:56.919Z,6.20
2023-03-08T17:22:19.645Z,6.63
2023-03-08T17:27:42.003Z,7.07
2023-03-08T17:33:04.303Z,10.77
2023-03-08T17:38:26.997Z,7.97
2023-03-08T17:43:50.440Z,8.33
2023-03-08T17:49:14.066Z,9.53
2023-03-08T17:54:36.764Z,12.03
2023-03-08T17:59:59.072Z,7.80
2023-03-08T18:05:21.461Z,8.63
2023-03-08T18:10:44.353Z,13.23
2023-03-08T18:16:06.969Z,10.63
2023-03-08T18:21:31.012Z,11.03
2023-03-08T18:26:54.109Z,10.73
2023-03-08T18:32:16.623Z,11.20
2023-03-08T18:37:38.841Z,10.40
2023-03-08T18:43:01.579Z,6.20
2023-03-08T18:48:24.648Z,8.03
2023-03-08T18:53:47.628Z,9.27
2023-03-08T18:59:13.506Z,11.07
2023-03-08T19:04:40.722Z,10.23
2023-03-08T19:10:04.169Z,13.67
2023-03-08T19:15:26.753Z,11.27
2023-03-08T19:20:49.385Z,9.00
2023-03-08T19:26:36.880Z,10.27
2023-03-08T19:32:08.131Z,8.80
2023-03-08T19:37:31.236Z,10.13
2023-03-08T19:42:53.978Z,9.40
2023-03-08T19:48:16.745Z,9.33
2023-03-08T19:53:40.729Z,10.67
2023-03-08T19:59:03.808Z,11.23
2023-03-08T20:04:26.145Z,10.60
2023-03-08T20:09:52.713Z,8.80
2023-03-08T20:15:15.706Z,9.43
2023-03-08T20:20:38.037Z,7.27
2023-03-08T20:26:00.373Z,9.07
2023-03-08T20:31:24.118Z,9.57
2023-03-08T20:36:47.561Z,8.33
2023-03-08T20:42:12.746Z,7.63
2023-03-08T20:47:35.685Z,10.47
2023-03-08T20:52:58.501Z,7.73
2023-03-08T20:58:21.757Z,6.37
2023-03-08T21:03:45.348Z,8.50
2023-03-08T21:09:07.621Z,6.90
2023-03-08T21:14:29.982Z,7.87
2023-03-08T21:19:57.447Z,10.87
2023-03-08T21:25:19.680Z,11.03
2023-03-08T21:30:42.465Z,12.43
2023-03-08T21:36:05.312Z,12.37
2023-03-08T21:41:30.509Z,10.00
2023-03-08T21:46:53.178Z,15.13
2023-03-08T21:52:15.577Z,11.53
2023-03-08T21:57:37.765Z,12.67
2023-03-08T22:03:00.620Z,16.50
2023-03-08T22:08:25.163Z,12.60
2023-03-08T22:13:57.062Z,19.07
2023-03-08T22:19:19.416Z,17.13
2023-03-08T22:24:41.554Z,17.97
2023-03-08T22:30:10.726Z,16.20
2023-03-08T22:35:33.523Z,16.83
2023-03-08T22:40:55.994Z,17.60
2023-03-08T22:46:22.285Z,15.53
2023-03-08T22:51:44.891Z,24.23
2023-03-08T22:57:07.427Z,17.93
2023-03-08T23:02:31.276Z,20.33
2023-03-08T23:07:53.793Z,19.20
2023-03-08T23:13:31.143Z,20.33
2023-03-08T23:18:55.532Z,22.30
2023-03-08T23:24:17.852Z,23.87
2023-03-08T23:29:40.091Z,21.93
2023-03-08T23:35:02.512Z,23.07
2023-03-08T23:40:24.706Z,25.53
2023-03-08T23:45:47.123Z,24.40
2023-03-08T23:51:13.901Z,25.30
2023-03-08T23:56:38.284Z,21.67
